Time;durP1;ratioP1;P1;durP2;ratioP2;P2;SDS_P1;SDS_P2;PMS_P1;PMS_P2;Temp;Humidity;BMP_temperature;BMP_pressure;BME280_temperature;BME280_humidity;BME280_pressure;Samples;Min_cycle;Max_cycle;Signal;HPM_P1;HPM_P2
2021/04/11 00:01:58;;;;;;;7.97;3.80;;;3.60;99.90;;;;;;5048011;28;20097;-78
2021/04/11 00:04:23;;;;;;;5.50;3.60;;;3.60;99.90;;;;;;5048134;28;20029;-78
2021/04/11 00:06:49;;;;;;;6.32;4.30;;;3.60;99.90;;;;;;5047008;28;20071;-78
2021/04/11 00:09:15;;;;;;;6.75;4.60;;;3.60;99.90;;;;;;5047747;28;20033;-78
2021/04/11 00:11:40;;;;;;;6.90;4.10;;;3.60;99.90;;;;;;5064281;28;20051;-78
2021/04/11 00:14:07;;;;;;;5.88;4.18;;;3.60;99.90;;;;;;5047708;28;20041;-78
2021/04/11 00:16:33;;;;;;;7.63;4.43;;;3.60;99.90;;;;;;5065464;28;20025;-78
2021/04/11 00:18:59;;;;;;;7.60;5.18;;;3.50;99.90;;;;;;5047486;28;20044;-77
2021/04/11 00:21:25;;;;;;;8.25;5.07;;;3.60;99.90;;;;;;5064034;28;20033;-78
2021/04/11 00:23:51;;;;;;;8.40;4.90;;;3.50;99.90;;;;;;5047666;28;20037;-78
2021/04/11 00:26:16;;;;;;;6.50;4.60;;;3.50;99.90;;;;;;5031064;28;20032;-78
2021/04/11 00:28:42;;;;;;;5.70;3.92;;;3.50;99.90;;;;;;5064169;28;20049;-78
2021/04/11 00:31:08;;;;;;;8.68;3.15;;;3.50;99.90;;;;;;5065456;28;20036;-78
2021/04/11 00:33:43;;;;;;;4.75;2.83;;;3.50;99.90;;;;;;5047461;28;20037;-78
2021/04/11 00:36:17;;;;;;;5.50;3.97;;;3.50;99.90;;;;;;5064044;28;20048;-78
2021/04/11 00:38:43;;;;;;;5.60;3.92;;;3.40;99.90;;;;;;5047392;28;20033;-78
2021/04/11 00:41:19;;;;;;;5.40;3.15;;;3.40;99.90;;;;;;5047653;28;20389;-78
2021/04/11 00:43:46;;;;;;;7.20;4.20;;;3.40;99.90;;;;;;5027719;28;20520;-78
2021/04/11 00:46:20;;;;;;;7.13;4.05;;;3.40;99.90;;;;;;5027725;28;20037;-77
2021/04/11 00:48:46;;;;;;;5.13;3.63;;;3.40;99.90;;;;;;5027533;28;20044;-78
2021/04/11 00:51:15;;;;;;;5.57;3.25;;;3.40;99.90;;;;;;5027606;28;20088;-78
2021/04/11 00:53:43;;;;;;;5.47;3.63;;;3.30;99.90;;;;;;5027420;28;20045;-78
2021/04/11 00:56:11;;;;;;;4.72;3.70;;;3.40;99.90;;;;;;5011181;28;20029;-78
2021/04/11 00:58:38;;;;;;;6.47;4.82;;;3.40;99.90;;;;;;5011218;28;20033;-78
2021/04/11 01:01:05;;;;;;;5.30;4.40;;;3.40;99.90;;;;;;5011256;28;20022;-78
2021/04/11 01:03:34;;;;;;;7.03;4.60;;;3.30;99.90;;;;;;5043996;28;20057;-78
2021/04/11 01:06:00;;;;;;;7.90;3.47;;;3.30;99.90;;;;;;5030884;28;20129;-78
2021/04/11 01:08:30;;;;;;;6.30;4.05;;;3.30;99.90;;;;;;5083660;28;20032;-78
2021/04/11 01:11:05;;;;;;;5.97;3.65;;;3.30;99.90;;;;;;5067099;28;20024;-78
2021/04/11 01:13:33;;;;;;;6.18;4.75;;;3.30;99.90;;;;;;5083693;28;20036;-77
2021/04/11 01:16:00;;;;;;;7.55;4.60;;;3.30;99.90;;;;;;5066947;28;20086;-78
2021/04/11 01:18:26;;;;;;;5.47;4.05;;;3.30;99.90;;;;;;5066940;28;20024;-78
2021/04/11 01:20:55;;;;;;;5.82;4.35;;;3.30;99.90;;;;;;5066852;28;20024;-78
2021/04/11 01:23:23;;;;;;;6.60;4.47;;;3.30;99.90;;;;;;5066786;28;20031;-78
2021/04/11 01:25:51;;;;;;;6.78;4.55;;;3.20;99.90;;;;;;5083542;28;20119;-78
2021/04/11 01:28:23;;;;;;;5.57;3.63;;;3.20;99.90;;;;;;5066680;28;20029;-78
2021/04/11 01:30:55;;;;;;;6.03;4.45;;;3.20;99.90;;;;;;5083710;28;20024;-78
2021/04/11 01:33:22;;;;;;;;;;;3.20;99.90;;;;;;5087204;28;20056;-78
2021/04/11 01:35:51;;;;;;;6.40;4.40;;;3.10;99.90;;;;;;5088363;28;19908;-78
2021/04/11 01:38:19;;;;;;;7.82;4.15;;;3.20;99.90;;;;;;5088322;28;20120;-77
2021/04/11 01:40:51;;;;;;;7.43;4.57;;;3.10;99.90;;;;;;5070393;28;20036;-78
2021/04/11 01:43:20;;;;;;;10.48;5.97;;;3.10;99.90;;;;;;5053279;28;20032;-78
2021/04/11 01:45:47;;;;;;;8.25;4.72;;;3.10;99.90;;;;;;5050265;28;20031;-78
2021/04/11 01:48:17;;;;;;;11.48;5.68;;;3.10;99.90;;;;;;5050019;28;20025;-78
2021/04/11 01:50:44;;;;;;;8.82;6.15;;;3.00;99.90;;;;;;5050206;28;20029;-77
2021/04/11 01:53:12;;;;;;;8.75;6.03;;;3.00;99.90;;;;;;5066650;28;20041;-78
2021/04/11 01:55:40;;;;;;;8.05;5.68;;;3.00;99.90;;;;;;5050093;28;20025;-78
2021/04/11 01:58:07;;;;;;;9.55;5.78;;;3.00;99.90;;;;;;5067987;28;20083;-78
2021/04/11 02:00:44;;;;;;;9.05;5.85;;;2.90;99.90;;;;;;5049977;28;20100;-78
2021/04/11 02:03:14;;;;;;;8.77;5.90;;;2.90;99.90;;;;;;5050001;28;20059;-78
2021/04/11 02:05:41;;;;;;;8.48;5.95;;;2.90;99.90;;;;;;5064093;28;20040;-78
2021/04/11 02:08:11;;;;;;;10.18;6.70;;;2.90;99.90;;;;;;5070075;28;20025;-78
2021/04/11 02:10:48;;;;;;;7.75;5.50;;;2.90;99.90;;;;;;5070857;28;20024;-78
2021/04/11 02:13:28;;;;;;;10.33;5.80;;;2.90;99.90;;;;;;5069889;28;20061;-78
2021/04/11 02:16:01;;;;;;;8.90;6.10;;;2.90;99.90;;;;;;5070442;28;20297;-78
2021/04/11 02:18:30;;;;;;;6.97;5.43;;;2.90;99.90;;;;;;5070001;28;20036;-78
2021/04/11 02:21:02;;;;;;;9.93;5.50;;;2.90;99.90;;;;;;5086529;28;20033;-78
2021/04/11 02:23:30;;;;;;;7.20;5.18;;;2.90;99.90;;;;;;5069615;28;20029;-78
2021/04/11 02:25:56;;;;;;;8.05;5.32;;;2.90;99.90;;;;;;5069517;28;20048;-78
2021/04/11 02:28:28;;;;;;;9.52;5.70;;;2.90;99.90;;;;;;5069478;28;20024;-78
2021/04/11 02:31:16;;;;;;;9.55;5.43;;;2.90;99.90;;;;;;5069707;28;20044;-78
2021/04/11 02:34:03;;;;;;;8.38;4.85;;;2.90;99.90;;;;;;5069599;28;20043;-78
2021/04/11 02:36:43;;;;;;;9.25;6.28;;;2.90;99.90;;;;;;5069292;28;20028;-78
2021/04/11 02:39:19;;;;;;;11.75;6.07;;;2.90;99.90;;;;;;5069225;28;20025;-77
2021/04/11 02:41:46;;;;;;;9.75;4.57;;;2.90;99.90;;;;;;5065092;28;20025;-78
2021/04/11 02:44:14;;;;;;;8.48;5.18;;;2.90;99.90;;;;;;5064799;28;20060;-78
2021/04/11 02:46:42;;;;;;;8.02;5.25;;;3.00;99.90;;;;;;5049330;28;20029;-78
2021/04/11 02:49:11;;;;;;;6.63;4.75;;;3.00;99.90;;;;;;5049187;28;20029;-78
2021/04/11 02:51:37;;;;;;;8.90;5.95;;;2.90;99.90;;;;;;5049273;28;20029;-78
2021/04/11 02:54:11;;;;;;;9.57;5.32;;;3.00;99.90;;;;;;5049135;28;20071;-78
2021/04/11 02:56:41;;;;;;;5.78;3.80;;;3.00;99.90;;;;;;5048281;28;20021;-78
2021/04/11 02:59:16;;;;;;;6.53;4.95;;;3.00;99.90;;;;;;5049210;28;20052;-78
2021/04/11 03:01:49;;;;;;;7.70;4.70;;;3.00;99.90;;;;;;5065679;28;20049;-78
2021/04/11 03:04:21;;;;;;;5.68;3.97;;;3.00;99.90;;;;;;5052194;28;20021;-78
2021/04/11 03:06:54;;;;;;;6.15;3.92;;;3.00;99.90;;;;;;5044912;28;20109;-78
2021/04/11 03:09:32;;;;;;;7.10;4.82;;;3.10;99.90;;;;;;5029412;28;20033;-77
2021/04/11 03:12:00;;;;;;;6.13;3.88;;;3.00;99.90;;;;;;5048800;28;20496;-78
2021/04/11 03:14:34;;;;;;;8.98;4.80;;;3.10;99.90;;;;;;5048669;28;20060;-78
2021/04/11 03:17:11;;;;;;;6.88;4.40;;;3.10;99.90;;;;;;5048628;28;20025;-78
2021/04/11 03:19:49;;;;;;;5.80;3.35;;;3.10;99.90;;;;;;5066366;28;20029;-78
2021/04/11 03:22:17;;;;;;;5.45;2.95;;;3.10;99.90;;;;;;5048494;28;20067;-78
2021/04/11 03:24:43;;;;;;;5.97;4.15;;;3.20;99.90;;;;;;5048520;28;20055;-78
2021/04/11 03:27:37;;;;;;;5.70;3.95;;;3.10;99.90;;;;;;5048234;28;20053;-78
2021/04/11 03:30:08;;;;;;;5.18;4.20;;;3.20;99.90;;;;;;5032132;28;20092;-77
2021/04/11 03:32:57;;;;;;;6.13;3.90;;;3.20;99.90;;;;;;5031950;28;20087;-78
2021/04/11 03:35:26;;;;;;;4.95;3.92;;;3.20;99.90;;;;;;5048067;28;20025;-78
2021/04/11 03:37:57;;;;;;;6.47;3.92;;;3.20;99.90;;;;;;5048261;28;20078;-78
2021/04/11 03:40:27;;;;;;;6.18;4.38;;;3.20;99.90;;;;;;5047934;28;20029;-78
2021/04/11 03:42:59;;;;;;;5.88;4.18;;;3.20;99.90;;;;;;5048108;28;20035;-78
2021/04/11 03:45:30;;;;;;;4.13;3.10;;;3.20;99.90;;;;;;5064624;28;20025;-78
2021/04/11 03:48:29;;;;;;;5.05;3.63;;;3.20;99.90;;;;;;5064782;28;20096;-77
2021/04/11 03:51:11;;;;;;;11.85;3.63;;;3.20;99.90;;;;;;5043187;28;20037;-78
2021/04/11 03:53:41;;;;;;;5.18;3.10;;;3.20;99.90;;;;;;5064521;28;20507;-78
2021/04/11 03:56:12;;;;;;;3.95;2.80;;;3.20;99.90;;;;;;5065348;28;20025;-78
2021/04/11 03:58:53;;;;;;;4.63;2.50;;;3.20;99.90;;;;;;5047865;28;20116;-78
2021/04/11 04:01:45;;;;;;;3.10;2.33;;;3.20;99.90;;;;;;5065891;28;20021;-77
2021/04/11 04:04:15;;;;;;;4.00;2.47;;;3.20;99.90;;;;;;5047725;28;20060;-78
2021/04/11 04:07:10;;;;;;;4.78;2.15;;;3.20;99.90;;;;;;5047565;28;20048;-78
2021/04/11 04:09:39;;;;;;;4.47;2.00;;;3.10;99.90;;;;;;5047750;28;20029;-78
2021/04/11 04:12:18;;;;;;;2.35;1.65;;;3.20;99.90;;;;;;5047730;28;20063;-77
2021/04/11 04:15:13;;;;;;;2.60;1.65;;;3.20;99.90;;;;;;5031264;28;20484;-78
2021/04/11 04:18:02;;;;;;;3.00;1.25;;;3.20;99.90;;;;;;5064479;28;20033;-78
2021/04/11 04:20:42;;;;;;;3.72;2.10;;;3.20;99.90;;;;;;5031273;28;20112;-78
2021/04/11 04:23:35;;;;;;;2.25;1.50;;;3.20;99.90;;;;;;5047742;28;20488;-78
2021/04/11 04:26:32;;;;;;;3.28;1.58;;;3.10;99.90;;;;;;5047538;28;20116;-78
2021/04/11 04:29:19;;;;;;;3.28;1.10;;;3.20;99.90;;;;;;5047550;28;20037;-78
2021/04/11 04:31:52;;;;;;;2.50;1.38;;;3.20;99.90;;;;;;5047928;28;20039;-78
2021/04/11 04:34:43;;;;;;;2.20;1.20;;;3.20;99.90;;;;;;5031128;28;20101;-78
2021/04/11 04:37:19;;;;;;;2.40;1.65;;;3.20;99.90;;;;;;5047566;28;20497;-78
2021/04/11 04:40:08;;;;;;;2.58;1.55;;;3.20;99.90;;;;;;5047476;28;20096;-78
2021/04/11 04:42:50;;;;;;;3.05;1.27;;;3.20;99.90;;;;;;5031403;28;20477;-78
2021/04/11 04:45:39;;;;;;;3.03;1.20;;;3.20;99.90;;;;;;5047684;28;20025;-78
2021/04/11 04:48:24;;;;;;;3.00;1.30;;;3.20;99.90;;;;;;5038184;28;20037;-78
2021/04/11 04:51:20;;;;;;;2.25;1.50;;;3.30;99.90;;;;;;5047458;28;20033;-78
2021/04/11 04:54:15;;;;;;;2.20;1.38;;;3.20;99.90;;;;;;5048416;28;20053;-78
2021/04/11 04:57:16;;;;;;;3.03;1.13;;;3.30;99.90;;;;;;5063896;28;20033;-78
2021/04/11 04:59:57;;;;;;;2.97;1.48;;;3.30;99.90;;;;;;5023412;28;20485;-78
2021/04/11 05:02:27;;;;;;;;;;;3.30;99.90;;;;;;5048007;28;20036;-78
2021/04/11 05:05:06;;;;;;;2.90;1.63;;;3.30;99.90;;;;;;5052227;28;20158;-78
2021/04/11 05:07:42;;;;;;;2.83;1.42;;;3.30;99.90;;;;;;5049497;28;20075;-78
2021/04/11 05:10:15;;;;;;;2.50;2.08;;;3.30;99.90;;;;;;5084437;28;20029;-78
2021/04/11 05:12:57;;;;;;;2.17;1.23;;;3.30;99.90;;;;;;5084464;28;20177;-78
2021/04/11 05:15:28;;;;;;;2.53;1.45;;;3.30;99.90;;;;;;5084313;28;20396;-78
2021/04/11 05:18:11;;;;;;;5.45;1.90;;;3.30;99.90;;;;;;5082774;28;20122;-78
2021/04/11 05:20:43;;;;;;;2.60;1.30;;;3.30;99.90;;;;;;5083961;28;20380;-78
2021/04/11 05:23:23;;;;;;;4.93;1.80;;;3.40;99.90;;;;;;5084204;28;20044;-78
2021/04/11 05:26:13;;;;;;;3.55;1.30;;;3.40;99.90;;;;;;5083632;28;20499;-78
2021/04/11 05:29:03;;;;;;;4.25;1.52;;;3.40;99.90;;;;;;5050725;28;20032;-78
2021/04/11 05:31:35;;;;;;;2.20;1.30;;;3.40;99.90;;;;;;5084010;28;20043;-78
2021/04/11 05:34:03;;;;;;;3.47;1.70;;;3.40;99.90;;;;;;5067142;28;20041;-78
2021/04/11 05:36:53;;;;;;;4.22;1.83;;;3.40;99.90;;;;;;5047250;28;20080;-78
2021/04/11 05:39:34;;;;;;;4.22;1.38;;;3.40;99.90;;;;;;5049952;28;20032;-78
2021/04/11 05:42:25;;;;;;;4.50;2.00;;;3.40;99.90;;;;;;5066345;28;20020;-78
2021/04/11 05:45:13;;;;;;;2.88;1.27;;;3.40;99.90;;;;;;5067656;28;20108;-78
2021/04/11 05:47:46;;;;;;;2.53;1.05;;;3.40;99.90;;;;;;5049576;28;20116;-78
2021/04/11 05:50:30;;;;;;;1.90;1.08;;;3.40;99.90;;;;;;5066572;28;20075;-78
2021/04/11 05:53:20;;;;;;;2.42;1.00;;;3.50;99.90;;;;;;5049773;28;20045;-78
2021/04/11 05:55:56;;;;;;;3.15;0.80;;;3.50;99.90;;;;;;5049472;28;20028;-78
2021/04/11 05:58:26;;;;;;;2.50;1.08;;;3.50;99.90;;;;;;5065878;28;20040;-78
2021/04/11 06:01:12;;;;;;;2.72;0.98;;;3.50;99.90;;;;;;5067471;28;20064;-78
2021/04/11 06:03:49;;;;;;;2.10;0.80;;;3.50;99.90;;;;;;5049361;28;20036;-78
2021/04/11 06:06:24;;;;;;;2.53;0.70;;;3.50;99.90;;;;;;5054395;28;20044;-78
2021/04/11 06:09:10;;;;;;;1.80;0.60;;;3.60;99.90;;;;;;5069292;28;20484;-79
2021/04/11 06:11:57;;;;;;;2.03;0.60;;;3.60;99.90;;;;;;5065975;28;20045;-78
2021/04/11 06:14:35;;;;;;;1.38;0.50;;;3.60;99.90;;;;;;5065704;28;20032;-79
2021/04/11 06:17:08;;;;;;;2.20;0.50;;;3.60;99.90;;;;;;5063772;28;20036;-78
2021/04/11 06:19:34;;;;;;;1.08;0.50;;;3.60;99.90;;;;;;5066832;28;20029;-78
2021/04/11 06:22:23;;;;;;;1.35;0.47;;;3.60;99.90;;;;;;5066878;28;20075;-80
2021/04/11 06:25:02;;;;;;;1.55;0.40;;;3.60;99.90;;;;;;5049029;28;20108;-78
2021/04/11 06:28:06;;;;;;;1.73;0.40;;;3.70;99.90;;;;;;5048882;28;20040;-78
2021/04/11 06:30:36;;;;;;;1.40;0.40;;;3.60;99.90;;;;;;5065284;28;20075;-78
2021/04/11 06:33:12;;;;;;;1.10;0.40;;;3.60;99.90;;;;;;5048462;28;20068;-78
2021/04/11 06:35:44;;;;;;;1.00;0.40;;;3.60;99.90;;;;;;5064757;28;20480;-78
2021/04/11 06:38:18;;;;;;;0.80;0.30;;;3.70;99.90;;;;;;5065062;28;20120;-78
2021/04/11 06:41:11;;;;;;;1.67;0.30;;;3.60;99.90;;;;;;5048751;28;20029;-78
2021/04/11 06:43:58;;;;;;;0.80;0.30;;;3.70;99.90;;;;;;5065041;28;20029;-79
2021/04/11 06:46:41;;;;;;;1.90;0.40;;;3.70;99.90;;;;;;5064585;28;20029;-78
2021/04/11 06:49:19;;;;;;;0.88;0.40;;;3.60;99.90;;;;;;5048822;28;20041;-78
2021/04/11 06:51:47;;;;;;;0.60;0.30;;;3.60;99.90;;;;;;5065137;28;20029;-78
2021/04/11 06:54:38;;;;;;;1.38;0.40;;;3.60;99.90;;;;;;5066300;28;20037;-78
2021/04/11 06:57:12;;;;;;;1.15;0.40;;;3.60;99.90;;;;;;5048141;28;20043;-78
2021/04/11 06:59:53;;;;;;;1.00;0.30;;;3.60;99.90;;;;;;5048242;28;20473;-78
2021/04/11 07:02:40;;;;;;;1.13;0.30;;;3.70;99.90;;;;;;5065822;28;20044;-78
2021/04/11 07:05:13;;;;;;;0.55;0.25;;;3.70;99.90;;;;;;5074381;28;20464;-78
2021/04/11 07:08:01;;;;;;;1.75;0.30;;;3.80;99.90;;;;;;5081575;28;20118;-78
2021/04/11 07:10:40;;;;;;;1.20;0.30;;;3.90;99.90;;;;;;5065045;28;20058;-78
2021/04/11 07:13:25;;;;;;;0.87;0.30;;;3.80;99.90;;;;;;5064816;28;20036;-78
2021/04/11 07:16:19;;;;;;;0.50;0.30;;;3.90;99.90;;;;;;5065978;28;20063;-78
2021/04/11 07:18:57;;;;;;;0.80;0.30;;;3.90;99.90;;;;;;5081285;28;20037;-78
2021/04/11 07:21:43;;;;;;;1.75;0.30;;;3.90;99.90;;;;;;5064981;28;20021;-78
2021/04/11 07:24:33;;;;;;;1.77;0.32;;;4.10;99.90;;;;;;5064442;28;20029;-78
2021/04/11 07:27:15;;;;;;;1.15;0.30;;;4.20;99.90;;;;;;5064838;28;20032;-78
2021/04/11 07:29:57;;;;;;;0.77;0.30;;;4.40;99.90;;;;;;5065420;28;20052;-78
2021/04/11 07:33:16;;;;;;;0.60;0.22;;;4.50;99.90;;;;;;5064254;28;20048;-78
2021/04/11 07:35:57;;;;;;;0.98;0.20;;;4.60;99.90;;;;;;5063424;28;20055;-78
2021/04/11 07:38:47;;;;;;;1.70;0.30;;;4.60;99.90;;;;;;5046544;28;20037;-78
2021/04/11 07:41:35;;;;;;;0.60;0.22;;;4.50;99.90;;;;;;5077798;28;20095;-77
2021/04/11 07:44:25;;;;;;;1.50;0.40;;;4.50;99.90;;;;;;5027865;28;20125;-78
2021/04/11 07:47:10;;;;;;;0.90;0.30;;;4.60;99.90;;;;;;5044248;28;20056;-78
2021/04/11 07:49:51;;;;;;;0.75;0.30;;;4.50;99.90;;;;;;5027856;28;20108;-78
2021/04/11 07:52:41;;;;;;;1.25;0.20;;;4.50;99.90;;;;;;5044109;28;20033;-78
2021/04/11 07:55:34;;;;;;;1.10;0.20;;;4.60;99.90;;;;;;5045526;28;20120;-78
2021/04/11 07:58:31;;;;;;;2.22;0.20;;;4.50;99.90;;;;;;5045213;28;20033;-78
2021/04/11 08:01:21;;;;;;;2.05;0.30;;;4.50;99.90;;;;;;5045463;28;20029;-78
2021/04/11 08:04:08;;;;;;;3.50;0.30;;;4.40;99.90;;;;;;5045622;28;20029;-78
2021/04/11 08:06:56;;;;;;;1.27;0.30;;;4.40;99.90;;;;;;5044992;28;20356;-78
2021/04/11 08:09:44;;;;;;;2.47;0.30;;;4.40;99.90;;;;;;5044930;28;20513;-78
2021/04/11 08:12:38;;;;;;;1.02;0.30;;;4.40;99.90;;;;;;5043804;28;20037;-78
2021/04/11 08:15:32;;;;;;;2.60;0.30;;;4.50;99.90;;;;;;5043769;28;20033;-78
2021/04/11 08:18:19;;;;;;;1.88;0.32;;;4.40;99.90;;;;;;5043515;28;20399;-78
2021/04/11 08:21:04;;;;;;;1.98;0.30;;;4.50;99.90;;;;;;5043603;28;20465;-78
2021/04/11 08:23:46;;;;;;;1.10;0.40;;;4.50;99.90;;;;;;5044921;28;20040;-78
2021/04/11 08:26:40;;;;;;;0.80;0.30;;;4.50;99.90;;;;;;5043468;28;20037;-78
2021/04/11 08:29:15;;;;;;;2.08;0.30;;;4.50;99.90;;;;;;5044755;28;20026;-78
2021/04/11 08:31:59;;;;;;;0.82;0.30;;;4.50;99.90;;;;;;5044932;28;20025;-78
2021/04/11 08:34:52;;;;;;;0.75;0.30;;;4.50;99.90;;;;;;5044654;28;20067;-78
2021/04/11 08:37:51;;;;;;;5.80;0.60;;;4.50;99.90;;;;;;5043578;28;20030;-78
2021/04/11 08:40:25;;;;;;;1.63;0.30;;;4.40;99.90;;;;;;5043791;28;20040;-79
2021/04/11 08:43:03;;;;;;;1.48;0.30;;;4.50;99.90;;;;;;5044045;28;20028;-78
2021/04/11 08:45:55;;;;;;;0.85;0.40;;;4.60;99.90;;;;;;5050986;28;20437;-78
2021/04/11 08:49:05;;;;;;;2.50;0.50;;;4.50;99.90;;;;;;5067319;28;20035;-78
2021/04/11 08:51:49;;;;;;;1.27;0.30;;;4.40;99.90;;;;;;5050912;28;20045;-78
2021/04/11 08:54:25;;;;;;;2.10;0.30;;;4.40;99.90;;;;;;5050682;28;20307;-78
2021/04/11 08:57:02;;;;;;;1.63;0.40;;;4.40;99.90;;;;;;5068708;28;20029;-78
2021/04/11 08:59:44;;;;;;;3.72;0.40;;;4.40;99.90;;;;;;5067178;28;20033;-78
2021/04/11 09:02:28;;;;;;;3.70;0.50;;;4.30;99.90;;;;;;5050738;28;20115;-78
2021/04/11 09:05:25;;;;;;;2.45;0.50;;;4.50;99.90;;;;;;5054891;28;20116;-78
2021/04/11 09:08:13;;;;;;;1.52;0.40;;;4.80;99.90;;;;;;5049135;28;20049;-78
2021/04/11 09:11:10;;;;;;;0.82;0.30;;;5.10;99.90;;;;;;5049404;28;20033;-78
2021/04/11 09:13:45;;;;;;;1.95;0.30;;;5.40;99.90;;;;;;5065871;28;20049;-78
2021/04/11 09:16:47;;;;;;;1.15;0.40;;;5.60;99.90;;;;;;5065904;28;20024;-78
2021/04/11 09:19:18;;;;;;;1.83;0.40;;;5.40;99.90;;;;;;5065558;28;20064;-78
2021/04/11 09:21:48;;;;;;;1.33;0.30;;;5.20;99.90;;;;;;5065829;28;20028;-78
2021/04/11 09:24:23;;;;;;;;;;;5.10;99.90;;;;;;5047847;28;20173;-78
2021/04/11 09:26:57;;;;;;;1.73;0.20;;;5.00;99.90;;;;;;5007970;28;19917;-78
2021/04/11 09:29:32;;;;;;;1.73;0.30;;;5.00;99.90;;;;;;5044021;28;20033;-78
2021/04/11 09:32:20;;;;;;;2.50;0.30;;;5.10;99.90;;;;;;5045248;28;20038;-78
2021/04/11 09:35:24;;;;;;;2.80;0.40;;;5.20;99.90;;;;;;5028182;28;20048;-78
2021/04/11 09:38:15;;;;;;;1.63;0.30;;;5.30;99.90;;;;;;5012806;28;20506;-78
2021/04/11 09:41:11;;;;;;;1.02;0.28;;;5.20;99.90;;;;;;5045001;28;20037;-78
2021/04/11 09:44:09;;;;;;;2.35;0.20;;;5.30;99.90;;;;;;5029075;28;20387;-78
2021/04/11 09:46:49;;;;;;;1.75;0.40;;;5.10;99.90;;;;;;5049554;28;20040;-78
2021/04/11 09:49:25;;;;;;;0.68;0.20;;;5.10;99.90;;;;;;5066096;28;20033;-78
2021/04/11 09:52:06;;;;;;;2.05;0.30;;;5.30;99.90;;;;;;5067226;28;20036;-78
2021/04/11 09:54:45;;;;;;;1.95;0.30;;;5.20;99.90;;;;;;5067075;28;20230;-78
2021/04/11 09:57:17;;;;;;;4.30;0.30;;;5.10;99.90;;;;;;5066238;28;20057;-78
2021/04/11 09:59:49;;;;;;;3.95;0.30;;;5.00;99.90;;;;;;5066107;28;20033;-78
2021/04/11 10:02:42;;;;;;;3.03;0.22;;;5.00;99.90;;;;;;5067575;28;20460;-78
2021/04/11 10:05:39;;;;;;;1.00;0.22;;;5.00;99.90;;;;;;5066847;28;20021;-78
2021/04/11 10:08:30;;;;;;;2.97;0.28;;;5.00;99.90;;;;;;5066165;28;20041;-78
2021/04/11 10:11:05;;;;;;;;;;;5.00;99.90;;;;;;5049497;28;20025;-78
2021/04/11 10:14:11;;;;;;;1.88;0.20;;;5.10;99.90;;;;;;5082811;28;19917;-78
2021/04/11 10:16:46;;;;;;;2.50;0.20;;;5.30;99.90;;;;;;5065921;28;20036;-78
2021/04/11 10:19:47;;;;;;;1.98;0.20;;;5.50;99.90;;;;;;5065604;28;20040;-77
2021/04/11 10:22:51;;;;;;;1.27;0.20;;;5.50;99.90;;;;;;5082728;28;20029;-78
2021/04/11 10:25:29;;;;;;;2.65;0.28;;;5.50;99.90;;;;;;5048436;28;20029;-78
2021/04/11 10:28:12;;;;;;;1.95;0.28;;;5.60;99.90;;;;;;5065628;28;20044;-77
2021/04/11 10:30:40;;;;;;;1.70;0.40;;;5.80;99.90;;;;;;5049000;28;20040;-77
2021/04/11 10:33:18;;;;;;;3.53;0.30;;;5.90;99.90;;;;;;5065422;28;20043;-78
2021/04/11 10:36:09;;;;;;;2.05;0.25;;;5.90;99.90;;;;;;5065086;28;20489;-78
2021/04/11 10:38:49;;;;;;;1.10;0.30;;;6.00;99.90;;;;;;5082075;28;20025;-78
2021/04/11 10:41:30;;;;;;;1.98;0.32;;;5.90;99.90;;;;;;5065555;28;20029;-78
2021/04/11 10:44:16;;;;;;;1.35;0.30;;;5.90;99.90;;;;;;5029104;28;20398;-78
2021/04/11 10:47:00;;;;;;;3.70;0.30;;;6.20;99.90;;;;;;5046520;28;20059;-78
2021/04/11 10:50:06;;;;;;;1.67;0.20;;;5.80;99.90;;;;;;5046607;28;20037;-78
2021/04/11 10:53:15;;;;;;;0.93;0.20;;;5.90;99.90;;;;;;5018550;28;20049;-78
2021/04/11 10:55:49;;;;;;;1.17;0.25;;;5.60;99.90;;;;;;4982894;28;20055;-78
2021/04/11 10:58:37;;;;;;;1.42;0.20;;;5.50;99.90;;;;;;5028490;28;20576;-77
2021/04/11 11:01:31;;;;;;;1.50;0.10;;;5.30;99.90;;;;;;5047044;28;20097;-78
2021/04/11 11:04:02;;;;;;;1.15;0.20;;;5.20;99.90;;;;;;5028416;28;20039;-78
2021/04/11 11:06:40;;;;;;;0.50;0.10;;;5.10;99.90;;;;;;5054109;28;20055;-78
2021/04/11 11:09:31;;;;;;;1.63;0.20;;;5.00;99.90;;;;;;5065684;28;20365;-78
2021/04/11 11:12:22;;;;;;;1.42;0.10;;;5.10;99.90;;;;;;5065866;28;20464;-78
2021/04/11 11:15:11;;;;;;;0.65;0.10;;;5.20;99.90;;;;;;5065836;28;20037;-79
2021/04/11 11:17:53;;;;;;;2.40;0.20;;;5.50;99.90;;;;;;5064579;28;20044;-78
2021/04/11 11:20:29;;;;;;;2.13;0.20;;;5.80;99.90;;;;;;5064527;28;20484;-78
2021/04/11 11:23:43;;;;;;;0.82;0.20;;;6.40;99.90;;;;;;5047868;28;20037;-78
2021/04/11 11:26:23;;;;;;;1.92;0.20;;;6.60;99.90;;;;;;5060076;28;20389;-78
2021/04/11 11:29:17;;;;;;;3.03;0.20;;;6.70;99.90;;;;;;5064200;28;20491;-78
2021/04/11 11:32:03;;;;;;;1.05;0.15;;;6.50;99.90;;;;;;5065582;28;20043;-78
2021/04/11 11:34:44;;;;;;;0.85;0.20;;;6.50;99.90;;;;;;5065522;28;20040;-78
2021/04/11 11:37:17;;;;;;;2.40;0.30;;;6.60;99.90;;;;;;5065418;28;20469;-78
2021/04/11 11:39:48;;;;;;;0.30;0.10;;;6.50;99.90;;;;;;5047291;28;20041;-78
2021/04/11 11:42:29;;;;;;;1.00;0.10;;;6.30;99.90;;;;;;5065484;28;20071;-78
2021/04/11 11:45:04;;;;;;;1.00;0.10;;;6.20;99.90;;;;;;5065487;28;20064;-78
2021/04/11 11:47:58;;;;;;;2.05;0.17;;;6.20;99.90;;;;;;5047534;28;20039;-78
2021/04/11 11:50:46;;;;;;;2.50;0.10;;;6.40;99.90;;;;;;5064071;28;20029;-78
2021/04/11 11:53:16;;;;;;;1.85;0.20;;;6.30;99.90;;;;;;5046832;28;20127;-78
2021/04/11 11:55:54;;;;;;;4.93;0.20;;;6.30;99.90;;;;;;5063721;28;20037;-78
2021/04/11 11:58:29;;;;;;;0.73;0.20;;;6.30;99.90;;;;;;5047229;28;20033;-78
2021/04/11 12:01:12;;;;;;;1.00;0.10;;;6.40;99.90;;;;;;5047062;28;20372;-78
2021/04/11 12:03:39;;;;;;;1.05;0.10;;;6.40;99.90;;;;;;5065283;28;20028;-78
2021/04/11 12:06:32;;;;;;;2.25;0.10;;;6.40;99.90;;;;;;5077816;28;20115;-78
2021/04/11 12:09:22;;;;;;;1.90;0.13;;;6.40;99.90;;;;;;5064853;28;20037;-78
2021/04/11 12:12:12;;;;;;;3.08;0.15;;;6.50;99.90;;;;;;5046908;28;20029;-78
2021/04/11 12:15:04;;;;;;;2.20;0.10;;;6.30;99.90;;;;;;5065137;28;20047;-78
2021/04/11 12:17:39;;;;;;;2.17;0.20;;;6.20;99.90;;;;;;5063298;28;20060;-78
2021/04/11 12:20:12;;;;;;;1.15;0.20;;;6.20;99.90;;;;;;5047029;28;20063;-78
2021/04/11 12:22:50;;;;;;;2.30;0.10;;;6.20;99.90;;;;;;5046626;28;20076;-78
2021/04/11 12:25:25;;;;;;;0.60;0.10;;;6.00;99.90;;;;;;5080343;28;20079;-78
2021/04/11 12:27:52;;;;;;;2.67;0.40;;;6.10;99.90;;;;;;5046743;28;20036;-77
2021/04/11 12:30:35;;;;;;;2.67;0.20;;;6.30;99.90;;;;;;5046806;28;20025;-78
2021/04/11 12:33:23;;;;;;;0.75;0.20;;;6.70;99.90;;;;;;5063451;28;20026;-78
2021/04/11 12:36:29;;;;;;;0.95;0.10;;;6.80;99.90;;;;;;5063352;28;20043;-78
2021/04/11 12:39:11;;;;;;;2.75;0.20;;;7.10;99.90;;;;;;5052410;28;20044;-78
2021/04/11 12:41:43;;;;;;;1.23;0.30;;;7.20;99.90;;;;;;5063249;28;20392;-79
2021/04/11 12:44:34;;;;;;;0.60;0.10;;;7.00;99.90;;;;;;5063718;28;20037;-78
2021/04/11 12:47:18;;;;;;;1.15;0.20;;;6.80;99.90;;;;;;5063313;28;20128;-78
2021/04/11 12:50:31;;;;;;;3.25;0.30;;;6.60;99.90;;;;;;5064726;28;20111;-78
2021/04/11 12:53:10;;;;;;;1.30;0.20;;;6.40;99.90;;;;;;4982930;28;20185;-79
2021/04/11 12:55:45;;;;;;;0.70;0.10;;;6.30;99.90;;;;;;5060673;28;20123;-78
2021/04/11 12:58:37;;;;;;;1.77;0.10;;;6.20;99.90;;;;;;5064654;28;20056;-78
2021/04/11 13:01:27;;;;;;;0.70;0.13;;;6.00;99.90;;;;;;5046461;28;20037;-78
2021/04/11 13:03:53;;;;;;;1.10;0.15;;;5.80;99.90;;;;;;5063270;28;20037;-78
2021/04/11 13:06:56;;;;;;;0.35;0.10;;;5.80;99.90;;;;;;5079148;28;20076;-78
2021/04/11 13:10:07;;;;;;;3.53;0.20;;;5.70;99.90;;;;;;5064338;28;20037;-78
2021/04/11 13:12:38;;;;;;;;;;;5.90;99.90;;;;;;5047011;28;20041;-78
2021/04/11 13:15:10;;;;;;;0.57;0.10;;;5.90;99.90;;;;;;5046523;28;19912;-78
2021/04/11 13:17:55;;;;;;;0.93;0.17;;;6.10;99.90;;;;;;5046390;28;20039;-78
2021/04/11 13:20:25;;;;;;;0.45;0.10;;;6.30;99.90;;;;;;5064581;28;20021;-78
2021/04/11 13:22:57;;;;;;;;;;;6.50;99.90;;;;;;5064680;28;20410;-78
2021/04/11 13:25:37;;;;;;;1.80;0.10;;;6.70;99.90;;;;;;5079637;28;19920;-78
2021/04/11 13:28:25;;;;;;;1.02;0.10;;;6.90;99.90;;;;;;5065933;28;20047;-78
2021/04/11 13:31:12;;;;;;;3.15;0.13;;;6.80;99.90;;;;;;5050456;28;20037;-78
2021/04/11 13:33:52;;;;;;;0.73;0.15;;;7.10;99.90;;;;;;5083423;28;20025;-78
2021/04/11 13:36:27;;;;;;;2.35;0.20;;;7.30;99.90;;;;;;5068061;28;20057;-78
2021/04/11 13:39:04;;;;;;;1.85;0.20;;;7.60;99.90;;;;;;5067530;28;20073;-78
2021/04/11 13:41:44;;;;;;;1.10;0.17;;;7.70;99.90;;;;;;5067805;28;20109;-78
2021/04/11 13:44:16;;;;;;;1.77;0.20;;;8.60;99.90;;;;;;5067970;28;20032;-78
2021/04/11 13:46:51;;;;;;;1.63;0.10;;;8.50;99.90;;;;;;5066629;28;20029;-78
2021/04/11 13:49:20;;;;;;;1.00;0.10;;;7.80;99.90;;;;;;5067717;28;20033;-78
2021/04/11 13:52:07;;;;;;;1.70;0.10;;;7.60;99.90;;;;;;5049424;28;20033;-78
2021/04/11 13:54:57;;;;;;;0.55;0.10;;;7.30;99.90;;;;;;5067686;28;20055;-78
2021/04/11 13:57:38;;;;;;;1.52;0.20;;;7.30;99.90;;;;;;5066141;28;20040;-78
2021/04/11 14:00:34;;;;;;;0.77;0.10;;;7.30;99.90;;;;;;5067748;28;20500;-78
2021/04/11 14:03:16;;;;;;;0.50;0.10;;;7.30;99.90;;;;;;5067742;28;20086;-78
2021/04/11 14:05:42;;;;;;;0.98;0.10;;;7.40;99.90;;;;;;5071738;28;20055;-78